Terminal Aerodrome Forecast
Issued by NWS Greer, SC

Home | Current Version | Previous Version | Text Only | Print | Product List | Glossary On
Versions: 1 2 3 4 5 6 7 8 9 10 11 12 13 14 15 16 17 18 19 20 21 22 23 24 25 26 27 28 29 30 31 32 33 34 35 36 37 38
000
FTUS42 KGSP 251158 CCA
TAFCLT
TAF COR
KCLT 251158Z 2512/2618 29005KT P6SM VCSH SCT010 BKN040
      TEMPO 2512/2514 4SM -RA BR BKN010
     FM251400 30007KT P6SM BKN050
     FM252200 33005KT P6SM SCT060 BKN200
     FM261000 36003KT P6SM FEW020 BKN100=

USA.gov is the U.S. government's official web portal to all federal, state and local government web resources and services.